sensor_id;sensor_type;location;lat;lon;timestamp;P1;durP1;ratioP1;P2;durP2;ratioP2
36391;SDS011;22639;42.690;23.356;2023-08-20T00:01:02;8.60;;;7.80;;
36391;SDS011;22639;42.690;23.356;2023-08-20T00:03:29;8.77;;;7.47;;
36391;SDS011;22639;42.690;23.356;2023-08-20T00:05:54;8.68;;;7.82;;
36391;SDS011;22639;42.690;23.356;2023-08-20T00:08:20;8.85;;;7.63;;
36391;SDS011;22639;42.690;23.356;2023-08-20T00:10:45;10.10;;;8.48;;
36391;SDS011;22639;42.690;23.356;2023-08-20T00:13:11;8.90;;;8.00;;
36391;SDS011;22639;42.690;23.356;2023-08-20T00:15:36;8.73;;;7.93;;
36391;SDS011;22639;42.690;23.356;2023-08-20T00:18:02;10.75;;;8.32;;
36391;SDS011;22639;42.690;23.356;2023-08-20T00:20:27;10.57;;;8.00;;
36391;SDS011;22639;42.690;23.356;2023-08-20T00:22:54;9.68;;;8.63;;
36391;SDS011;22639;42.690;23.356;2023-08-20T00:25:19;10.00;;;8.23;;
36391;SDS011;22639;42.690;23.356;2023-08-20T00:27:44;11.07;;;9.05;;
36391;SDS011;22639;42.690;23.356;2023-08-20T00:30:10;9.88;;;8.88;;
36391;SDS011;22639;42.690;23.356;2023-08-20T00:32:37;10.90;;;9.85;;
36391;SDS011;22639;42.690;23.356;2023-08-20T00:35:02;12.15;;;9.07;;
36391;SDS011;22639;42.690;23.356;2023-08-20T00:37:28;9.73;;;8.73;;
36391;SDS011;22639;42.690;23.356;2023-08-20T00:39:54;9.93;;;8.73;;
36391;SDS011;22639;42.690;23.356;2023-08-20T00:42:19;10.05;;;9.18;;
36391;SDS011;22639;42.690;23.356;2023-08-20T00:44:46;10.13;;;9.15;;
36391;SDS011;22639;42.690;23.356;2023-08-20T00:47:12;10.95;;;9.80;;
36391;SDS011;22639;42.690;23.356;2023-08-20T00:49:37;10.32;;;9.32;;
36391;SDS011;22639;42.690;23.356;2023-08-20T00:52:03;12.27;;;8.68;;
36391;SDS011;22639;42.690;23.356;2023-08-20T00:54:29;8.95;;;8.15;;
36391;SDS011;22639;42.690;23.356;2023-08-20T00:56:54;9.82;;;8.82;;
36391;SDS011;22639;42.690;23.356;2023-08-20T00:59:19;9.48;;;8.50;;
36391;SDS011;22639;42.690;23.356;2023-08-20T01:01:45;10.32;;;8.80;;
36391;SDS011;22639;42.690;23.356;2023-08-20T01:04:10;9.45;;;8.50;;
36391;SDS011;22639;42.690;23.356;2023-08-20T01:06:41;10.23;;;8.68;;
36391;SDS011;22639;42.690;23.356;2023-08-20T01:11:55;9.27;;;8.38;;
36391;SDS011;22639;42.690;23.356;2023-08-20T01:14:21;13.13;;;8.73;;
36391;SDS011;22639;42.690;23.356;2023-08-20T01:16:46;8.88;;;8.07;;
36391;SDS011;22639;42.690;23.356;2023-08-20T01:19:14;10.95;;;9.52;;
36391;SDS011;22639;42.690;23.356;2023-08-20T01:21:47;10.20;;;9.20;;
36391;SDS011;22639;42.690;23.356;2023-08-20T01:29:32;10.00;;;9.10;;
36391;SDS011;22639;42.690;23.356;2023-08-20T01:31:59;9.50;;;8.52;;
36391;SDS011;22639;42.690;23.356;2023-08-20T01:34:25;12.70;;;9.55;;
36391;SDS011;22639;42.690;23.356;2023-08-20T01:36:51;10.15;;;9.10;;
36391;SDS011;22639;42.690;23.356;2023-08-20T01:39:16;10.48;;;9.48;;
36391;SDS011;22639;42.690;23.356;2023-08-20T01:41:44;11.40;;;10.20;;
36391;SDS011;22639;42.690;23.356;2023-08-20T01:44:10;12.68;;;9.70;;
36391;SDS011;22639;42.690;23.356;2023-08-20T01:46:35;10.88;;;9.80;;
36391;SDS011;22639;42.690;23.356;2023-08-20T01:49:00;11.35;;;9.82;;
36391;SDS011;22639;42.690;23.356;2023-08-20T01:51:25;11.05;;;10.05;;
36391;SDS011;22639;42.690;23.356;2023-08-20T01:53:50;10.98;;;9.95;;
36391;SDS011;22639;42.690;23.356;2023-08-20T01:56:16;9.85;;;8.88;;
36391;SDS011;22639;42.690;23.356;2023-08-20T01:58:41;12.18;;;10.88;;
36391;SDS011;22639;42.690;23.356;2023-08-20T02:01:06;11.77;;;10.50;;
36391;SDS011;22639;42.690;23.356;2023-08-20T02:03:32;12.40;;;10.18;;
36391;SDS011;22639;42.690;23.356;2023-08-20T02:05:57;11.95;;;10.77;;
36391;SDS011;22639;42.690;23.356;2023-08-20T02:08:22;11.27;;;10.27;;
36391;SDS011;22639;42.690;23.356;2023-08-20T02:10:48;12.50;;;11.18;;
36391;SDS011;22639;42.690;23.356;2023-08-20T02:13:13;12.45;;;10.88;;
36391;SDS011;22639;42.690;23.356;2023-08-20T02:15:38;13.63;;;9.85;;
36391;SDS011;22639;42.690;23.356;2023-08-20T02:18:04;10.48;;;9.48;;
36391;SDS011;22639;42.690;23.356;2023-08-20T02:20:29;11.52;;;10.48;;
36391;SDS011;22639;42.690;23.356;2023-08-20T02:22:54;11.45;;;10.35;;
36391;SDS011;22639;42.690;23.356;2023-08-20T02:25:20;11.32;;;10.23;;
36391;SDS011;22639;42.690;23.356;2023-08-20T02:27:45;10.93;;;9.82;;
36391;SDS011;22639;42.690;23.356;2023-08-20T02:30:11;11.75;;;10.50;;
36391;SDS011;22639;42.690;23.356;2023-08-20T02:32:40;13.18;;;10.43;;
36391;SDS011;22639;42.690;23.356;2023-08-20T02:35:06;11.48;;;10.32;;
36391;SDS011;22639;42.690;23.356;2023-08-20T02:37:32;19.15;;;12.20;;
36391;SDS011;22639;42.690;23.356;2023-08-20T02:39:57;17.83;;;16.02;;
36391;SDS011;22639;42.690;23.356;2023-08-20T02:42:22;15.00;;;12.55;;
36391;SDS011;22639;42.690;23.356;2023-08-20T02:44:47;11.65;;;10.48;;
36391;SDS011;22639;42.690;23.356;2023-08-20T02:47:13;12.80;;;11.15;;
36391;SDS011;22639;42.690;23.356;2023-08-20T02:49:38;12.00;;;10.90;;
36391;SDS011;22639;42.690;23.356;2023-08-20T02:52:03;12.32;;;10.52;;
36391;SDS011;22639;42.690;23.356;2023-08-20T02:54:28;11.20;;;10.02;;
36391;SDS011;22639;42.690;23.356;2023-08-20T02:56:57;10.85;;;9.82;;
36391;SDS011;22639;42.690;23.356;2023-08-20T02:59:23;11.30;;;9.90;;
36391;SDS011;22639;42.690;23.356;2023-08-20T03:01:48;11.88;;;10.35;;
36391;SDS011;22639;42.690;23.356;2023-08-20T03:04:15;11.43;;;10.02;;
36391;SDS011;22639;42.690;23.356;2023-08-20T03:06:40;11.93;;;10.73;;
36391;SDS011;22639;42.690;23.356;2023-08-20T03:09:05;10.15;;;9.25;;
36391;SDS011;22639;42.690;23.356;2023-08-20T03:11:31;14.38;;;10.35;;
36391;SDS011;22639;42.690;23.356;2023-08-20T03:13:56;11.00;;;9.95;;
36391;SDS011;22639;42.690;23.356;2023-08-20T03:16:21;9.90;;;8.95;;
36391;SDS011;22639;42.690;23.356;2023-08-20T03:18:46;10.80;;;9.27;;
36391;SDS011;22639;42.690;23.356;2023-08-20T03:21:12;10.77;;;9.68;;
36391;SDS011;22639;42.690;23.356;2023-08-20T03:23:37;11.15;;;9.95;;
36391;SDS011;22639;42.690;23.356;2023-08-20T03:26:02;10.90;;;9.80;;
36391;SDS011;22639;42.690;23.356;2023-08-20T03:28:27;11.02;;;9.93;;
36391;SDS011;22639;42.690;23.356;2023-08-20T03:30:53;10.70;;;9.63;;
36391;SDS011;22639;42.690;23.356;2023-08-20T03:33:18;10.27;;;9.27;;
36391;SDS011;22639;42.690;23.356;2023-08-20T03:35:43;10.57;;;9.57;;
36391;SDS011;22639;42.690;23.356;2023-08-20T03:38:08;10.65;;;9.65;;
36391;SDS011;22639;42.690;23.356;2023-08-20T03:40:33;10.23;;;9.23;;
36391;SDS011;22639;42.690;23.356;2023-08-20T03:42:59;10.77;;;9.77;;
36391;SDS011;22639;42.690;23.356;2023-08-20T03:45:24;10.88;;;9.77;;
36391;SDS011;22639;42.690;23.356;2023-08-20T03:47:49;10.23;;;9.23;;
36391;SDS011;22639;42.690;23.356;2023-08-20T03:50:14;11.15;;;10.05;;
36391;SDS011;22639;42.690;23.356;2023-08-20T03:52:40;11.77;;;10.63;;
36391;SDS011;22639;42.690;23.356;2023-08-20T03:55:05;13.93;;;11.30;;
36391;SDS011;22639;42.690;23.356;2023-08-20T03:57:30;11.90;;;10.40;;
36391;SDS011;22639;42.690;23.356;2023-08-20T03:59:56;11.93;;;10.73;;
36391;SDS011;22639;42.690;23.356;2023-08-20T04:02:21;12.15;;;10.35;;
36391;SDS011;22639;42.690;23.356;2023-08-20T04:04:46;14.73;;;10.82;;
36391;SDS011;22639;42.690;23.356;2023-08-20T04:07:12;14.15;;;10.38;;
36391;SDS011;22639;42.690;23.356;2023-08-20T04:09:37;12.40;;;11.00;;
36391;SDS011;22639;42.690;23.356;2023-08-20T04:12:03;14.27;;;10.73;;
36391;SDS011;22639;42.690;23.356;2023-08-20T04:14:29;12.18;;;10.98;;
36391;SDS011;22639;42.690;23.356;2023-08-20T04:16:54;14.07;;;10.88;;
36391;SDS011;22639;42.690;23.356;2023-08-20T04:19:19;14.13;;;10.82;;
36391;SDS011;22639;42.690;23.356;2023-08-20T04:21:44;14.05;;;10.55;;
36391;SDS011;22639;42.690;23.356;2023-08-20T04:24:10;14.52;;;10.90;;
36391;SDS011;22639;42.690;23.356;2023-08-20T04:26:35;12.02;;;10.82;;
36391;SDS011;22639;42.690;23.356;2023-08-20T04:29:00;10.93;;;9.77;;
36391;SDS011;22639;42.690;23.356;2023-08-20T04:31:25;10.90;;;9.60;;
36391;SDS011;22639;42.690;23.356;2023-08-20T04:33:51;11.93;;;9.95;;
36391;SDS011;22639;42.690;23.356;2023-08-20T04:36:16;11.40;;;10.30;;
36391;SDS011;22639;42.690;23.356;2023-08-20T04:38:41;15.27;;;10.30;;
36391;SDS011;22639;42.690;23.356;2023-08-20T04:41:06;12.70;;;10.18;;
36391;SDS011;22639;42.690;23.356;2023-08-20T04:43:31;11.35;;;10.13;;
36391;SDS011;22639;42.690;23.356;2023-08-20T04:45:57;12.65;;;10.82;;
36391;SDS011;22639;42.690;23.356;2023-08-20T04:48:22;12.32;;;11.05;;
36391;SDS011;22639;42.690;23.356;2023-08-20T04:50:48;12.20;;;11.00;;
36391;SDS011;22639;42.690;23.356;2023-08-20T04:53:13;12.57;;;10.07;;
36391;SDS011;22639;42.690;23.356;2023-08-20T04:55:38;13.68;;;10.05;;
36391;SDS011;22639;42.690;23.356;2023-08-20T04:58:04;13.38;;;11.88;;
36391;SDS011;22639;42.690;23.356;2023-08-20T05:00:29;13.55;;;11.93;;
36391;SDS011;22639;42.690;23.356;2023-08-20T05:02:54;12.90;;;11.55;;
36391;SDS011;22639;42.690;23.356;2023-08-20T05:05:21;15.70;;;13.95;;
36391;SDS011;22639;42.690;23.356;2023-08-20T05:07:47;16.83;;;12.40;;
36391;SDS011;22639;42.690;23.356;2023-08-20T05:10:12;13.23;;;11.88;;
36391;SDS011;22639;42.690;23.356;2023-08-20T05:12:37;14.70;;;12.00;;
36391;SDS011;22639;42.690;23.356;2023-08-20T05:15:03;12.63;;;11.02;;
36391;SDS011;22639;42.690;23.356;2023-08-20T05:17:29;13.40;;;11.07;;
36391;SDS011;22639;42.690;23.356;2023-08-20T05:19:54;17.52;;;11.38;;
36391;SDS011;22639;42.690;23.356;2023-08-20T05:22:20;14.70;;;11.65;;
36391;SDS011;22639;42.690;23.356;2023-08-20T05:24:45;13.32;;;9.63;;
36391;SDS011;22639;42.690;23.356;2023-08-20T05:27:14;11.52;;;9.77;;
36391;SDS011;22639;42.690;23.356;2023-08-20T05:29:40;16.95;;;10.60;;
36391;SDS011;22639;42.690;23.356;2023-08-20T05:32:07;10.98;;;9.85;;
36391;SDS011;22639;42.690;23.356;2023-08-20T05:34:32;12.57;;;10.50;;
36391;SDS011;22639;42.690;23.356;2023-08-20T05:36:57;13.18;;;10.85;;
36391;SDS011;22639;42.690;23.356;2023-08-20T05:39:23;13.93;;;11.35;;
36391;SDS011;22639;42.690;23.356;2023-08-20T05:41:48;13.38;;;11.43;;
36391;SDS011;22639;42.690;23.356;2023-08-20T05:44:13;18.45;;;11.00;;
36391;SDS011;22639;42.690;23.356;2023-08-20T05:46:39;13.32;;;9.82;;
36391;SDS011;22639;42.690;23.356;2023-08-20T05:49:06;13.18;;;10.65;;
36391;SDS011;22639;42.690;23.356;2023-08-20T05:51:31;11.65;;;9.73;;
36391;SDS011;22639;42.690;23.356;2023-08-20T05:53:56;11.25;;;10.07;;
36391;SDS011;22639;42.690;23.356;2023-08-20T05:56:22;15.75;;;10.75;;
36391;SDS011;22639;42.690;23.356;2023-08-20T05:58:47;12.07;;;10.40;;
36391;SDS011;22639;42.690;23.356;2023-08-20T06:01:13;13.23;;;10.82;;
36391;SDS011;22639;42.690;23.356;2023-08-20T06:03:38;11.98;;;10.85;;
36391;SDS011;22639;42.690;23.356;2023-08-20T06:06:03;10.40;;;9.30;;
36391;SDS011;22639;42.690;23.356;2023-08-20T06:08:28;11.30;;;9.95;;
36391;SDS011;22639;42.690;23.356;2023-08-20T06:10:54;10.55;;;9.18;;
36391;SDS011;22639;42.690;23.356;2023-08-20T06:13:19;9.98;;;8.95;;
36391;SDS011;22639;42.690;23.356;2023-08-20T06:15:45;11.80;;;10.02;;
36391;SDS011;22639;42.690;23.356;2023-08-20T06:18:10;10.35;;;9.32;;
36391;SDS011;22639;42.690;23.356;2023-08-20T06:20:35;9.35;;;8.35;;
36391;SDS011;22639;42.690;23.356;2023-08-20T06:23:04;10.20;;;9.15;;
36391;SDS011;22639;42.690;23.356;2023-08-20T06:25:31;9.55;;;8.48;;
36391;SDS011;22639;42.690;23.356;2023-08-20T06:27:57;10.52;;;9.60;;
36391;SDS011;22639;42.690;23.356;2023-08-20T06:30:22;9.40;;;8.52;;
36391;SDS011;22639;42.690;23.356;2023-08-20T06:32:47;9.50;;;8.60;;
36391;SDS011;22639;42.690;23.356;2023-08-20T06:35:13;9.80;;;8.90;;
36391;SDS011;22639;42.690;23.356;2023-08-20T06:37:39;10.63;;;9.48;;
36391;SDS011;22639;42.690;23.356;2023-08-20T06:40:05;9.70;;;8.48;;
36391;SDS011;22639;42.690;23.356;2023-08-20T06:42:31;9.63;;;8.65;;
36391;SDS011;22639;42.690;23.356;2023-08-20T06:44:56;8.90;;;8.07;;
36391;SDS011;22639;42.690;23.356;2023-08-20T06:47:21;9.32;;;8.50;;
36391;SDS011;22639;42.690;23.356;2023-08-20T06:49:53;9.75;;;8.90;;
36391;SDS011;22639;42.690;23.356;2023-08-20T06:52:20;9.38;;;8.57;;
36391;SDS011;22639;42.690;23.356;2023-08-20T06:54:46;9.10;;;8.30;;
36391;SDS011;22639;42.690;23.356;2023-08-20T06:57:11;8.95;;;7.35;;
36391;SDS011;22639;42.690;23.356;2023-08-20T06:59:37;9.03;;;8.13;;
36391;SDS011;22639;42.690;23.356;2023-08-20T07:02:02;9.57;;;8.73;;
36391;SDS011;22639;42.690;23.356;2023-08-20T07:04:28;9.27;;;8.38;;
36391;SDS011;22639;42.690;23.356;2023-08-20T07:06:53;10.50;;;9.07;;
36391;SDS011;22639;42.690;23.356;2023-08-20T07:09:19;8.30;;;7.50;;
36391;SDS011;22639;42.690;23.356;2023-08-20T07:11:45;9.27;;;7.50;;
36391;SDS011;22639;42.690;23.356;2023-08-20T07:14:10;8.30;;;7.40;;
36391;SDS011;22639;42.690;23.356;2023-08-20T07:16:38;8.73;;;7.80;;
36391;SDS011;22639;42.690;23.356;2023-08-20T07:19:07;7.85;;;7.05;;
36391;SDS011;22639;42.690;23.356;2023-08-20T07:21:33;7.30;;;6.60;;
36391;SDS011;22639;42.690;23.356;2023-08-20T07:23:58;7.53;;;6.82;;
36391;SDS011;22639;42.690;23.356;2023-08-20T07:26:25;7.57;;;6.88;;
36391;SDS011;22639;42.690;23.356;2023-08-20T07:28:50;7.50;;;6.80;;
36391;SDS011;22639;42.690;23.356;2023-08-20T07:31:21;8.63;;;7.75;;
36391;SDS011;22639;42.690;23.356;2023-08-20T07:33:47;7.78;;;7.03;;
36391;SDS011;22639;42.690;23.356;2023-08-20T07:36:13;7.80;;;7.10;;
36391;SDS011;22639;42.690;23.356;2023-08-20T07:38:38;8.20;;;7.00;;
36391;SDS011;22639;42.690;23.356;2023-08-20T07:41:06;7.68;;;7.03;;
36391;SDS011;22639;42.690;23.356;2023-08-20T07:43:31;11.30;;;6.57;;
36391;SDS011;22639;42.690;23.356;2023-08-20T07:45:57;7.00;;;6.30;;
36391;SDS011;22639;42.690;23.356;2023-08-20T07:48:22;8.70;;;6.53;;
36391;SDS011;22639;42.690;23.356;2023-08-20T07:50:47;6.90;;;6.40;;
36391;SDS011;22639;42.690;23.356;2023-08-20T07:53:13;6.75;;;6.13;;
36391;SDS011;22639;42.690;23.356;2023-08-20T07:55:38;6.97;;;6.40;;
36391;SDS011;22639;42.690;23.356;2023-08-20T07:58:03;6.72;;;6.13;;
36391;SDS011;22639;42.690;23.356;2023-08-20T08:00:28;7.13;;;6.50;;
36391;SDS011;22639;42.690;23.356;2023-08-20T08:02:54;7.20;;;6.60;;
36391;SDS011;22639;42.690;23.356;2023-08-20T08:05:19;6.93;;;6.32;;
36391;SDS011;22639;42.690;23.356;2023-08-20T08:07:45;6.88;;;6.32;;
36391;SDS011;22639;42.690;23.356;2023-08-20T08:10:10;6.53;;;6.03;;
36391;SDS011;22639;42.690;23.356;2023-08-20T08:12:35;7.47;;;5.68;;
36391;SDS011;22639;42.690;23.356;2023-08-20T08:15:01;6.60;;;6.07;;
36391;SDS011;22639;42.690;23.356;2023-08-20T08:17:27;8.88;;;5.55;;
36391;SDS011;22639;42.690;23.356;2023-08-20T08:19:52;6.35;;;5.78;;
36391;SDS011;22639;42.690;23.356;2023-08-20T08:22:19;6.15;;;5.55;;
36391;SDS011;22639;42.690;23.356;2023-08-20T08:24:45;6.60;;;6.07;;
36391;SDS011;22639;42.690;23.356;2023-08-20T08:27:10;6.00;;;5.50;;
36391;SDS011;22639;42.690;23.356;2023-08-20T08:29:42;8.02;;;5.75;;
36391;SDS011;22639;42.690;23.356;2023-08-20T08:32:07;7.00;;;5.72;;
36391;SDS011;22639;42.690;23.356;2023-08-20T08:34:32;6.00;;;5.60;;
36391;SDS011;22639;42.690;23.356;2023-08-20T08:36:57;6.05;;;5.55;;
36391;SDS011;22639;42.690;23.356;2023-08-20T08:39:23;5.63;;;5.22;;
36391;SDS011;22639;42.690;23.356;2023-08-20T08:41:49;5.53;;;5.03;;
36391;SDS011;22639;42.690;23.356;2023-08-20T08:44:15;4.80;;;4.30;;
36391;SDS011;22639;42.690;23.356;2023-08-20T08:46:41;6.45;;;4.93;;
36391;SDS011;22639;42.690;23.356;2023-08-20T08:49:07;6.50;;;5.38;;
36391;SDS011;22639;42.690;23.356;2023-08-20T08:51:36;4.57;;;4.28;;
36391;SDS011;22639;42.690;23.356;2023-08-20T08:54:02;5.22;;;4.75;;
36391;SDS011;22639;42.690;23.356;2023-08-20T08:56:27;5.35;;;4.85;;
36391;SDS011;22639;42.690;23.356;2023-08-20T08:58:53;6.78;;;5.68;;
36391;SDS011;22639;42.690;23.356;2023-08-20T09:01:19;5.15;;;4.75;;
36391;SDS011;22639;42.690;23.356;2023-08-20T09:03:44;5.43;;;5.00;;
36391;SDS011;22639;42.690;23.356;2023-08-20T09:06:10;5.35;;;4.95;;
36391;SDS011;22639;42.690;23.356;2023-08-20T09:08:35;4.95;;;4.45;;
36391;SDS011;22639;42.690;23.356;2023-08-20T09:11:01;5.28;;;4.78;;
36391;SDS011;22639;42.690;23.356;2023-08-20T09:13:36;6.00;;;5.30;;
36391;SDS011;22639;42.690;23.356;2023-08-20T09:16:05;5.53;;;4.88;;
36391;SDS011;22639;42.690;23.356;2023-08-20T09:18:32;5.43;;;4.63;;
36391;SDS011;22639;42.690;23.356;2023-08-20T09:20:58;5.60;;;4.82;;
36391;SDS011;22639;42.690;23.356;2023-08-20T09:23:26;4.13;;;3.83;;
36391;SDS011;22639;42.690;23.356;2023-08-20T09:25:52;4.75;;;4.05;;
36391;SDS011;22639;42.690;23.356;2023-08-20T09:28:18;4.53;;;4.15;;
36391;SDS011;22639;42.690;23.356;2023-08-20T09:30:54;4.40;;;4.10;;
36391;SDS011;22639;42.690;23.356;2023-08-20T09:33:19;5.13;;;4.72;;
36391;SDS011;22639;42.690;23.356;2023-08-20T09:35:51;6.68;;;4.55;;
36391;SDS011;22639;42.690;23.356;2023-08-20T09:38:19;4.53;;;4.22;;
36391;SDS011;22639;42.690;23.356;2023-08-20T09:43:24;5.25;;;4.85;;
36391;SDS011;22639;42.690;23.356;2023-08-20T09:46:00;3.95;;;3.65;;
36391;SDS011;22639;42.690;23.356;2023-08-20T09:48:27;4.90;;;3.70;;
36391;SDS011;22639;42.690;23.356;2023-08-20T09:50:53;4.07;;;3.40;;
36391;SDS011;22639;42.690;23.356;2023-08-20T09:53:33;3.75;;;3.38;;
36391;SDS011;22639;42.690;23.356;2023-08-20T09:56:03;4.45;;;3.70;;
36391;SDS011;22639;42.690;23.356;2023-08-20T09:58:29;3.25;;;3.00;;
36391;SDS011;22639;42.690;23.356;2023-08-20T10:00:55;4.82;;;3.90;;
36391;SDS011;22639;42.690;23.356;2023-08-20T10:03:20;5.63;;;3.67;;
36391;SDS011;22639;42.690;23.356;2023-08-20T10:05:48;3.72;;;3.42;;
36391;SDS011;22639;42.690;23.356;2023-08-20T10:08:14;3.95;;;3.65;;
36391;SDS011;22639;42.690;23.356;2023-08-20T10:10:40;3.28;;;3.03;;
36391;SDS011;22639;42.690;23.356;2023-08-20T10:13:05;5.38;;;3.60;;
36391;SDS011;22639;42.690;23.356;2023-08-20T10:15:30;4.00;;;3.70;;
36391;SDS011;22639;42.690;23.356;2023-08-20T10:17:58;3.75;;;3.45;;
36391;SDS011;22639;42.690;23.356;2023-08-20T10:20:25;4.82;;;3.53;;
36391;SDS011;22639;42.690;23.356;2023-08-20T10:22:53;3.75;;;3.45;;
36391;SDS011;22639;42.690;23.356;2023-08-20T10:25:23;4.13;;;3.72;;
36391;SDS011;22639;42.690;23.356;2023-08-20T10:27:48;3.58;;;3.33;;
36391;SDS011;22639;42.690;23.356;2023-08-20T10:30:19;4.47;;;3.80;;
36391;SDS011;22639;42.690;23.356;2023-08-20T10:32:53;4.18;;;3.88;;
36391;SDS011;22639;42.690;23.356;2023-08-20T10:43:14;5.05;;;3.55;;
36391;SDS011;22639;42.690;23.356;2023-08-20T10:45:48;3.80;;;3.50;;
36391;SDS011;22639;42.690;23.356;2023-08-20T10:48:26;4.22;;;3.60;;
36391;SDS011;22639;42.690;23.356;2023-08-20T10:50:52;3.47;;;3.20;;
36391;SDS011;22639;42.690;23.356;2023-08-20T10:53:17;4.40;;;3.50;;
36391;SDS011;22639;42.690;23.356;2023-08-20T10:55:50;5.60;;;3.80;;
36391;SDS011;22639;42.690;23.356;2023-08-20T10:58:16;4.40;;;4.00;;
36391;SDS011;22639;42.690;23.356;2023-08-20T11:00:46;4.40;;;4.00;;
36391;SDS011;22639;42.690;23.356;2023-08-20T11:03:30;4.55;;;4.15;;
36391;SDS011;22639;42.690;23.356;2023-08-20T11:05:55;4.00;;;3.65;;
36391;SDS011;22639;42.690;23.356;2023-08-20T11:08:21;4.30;;;3.90;;
36391;SDS011;22639;42.690;23.356;2023-08-20T11:10:53;4.25;;;3.42;;
36391;SDS011;22639;42.690;23.356;2023-08-20T11:13:19;3.67;;;3.38;;
36391;SDS011;22639;42.690;23.356;2023-08-20T11:15:45;4.23;;;3.30;;
36391;SDS011;22639;42.690;23.356;2023-08-20T11:18:10;3.50;;;2.97;;
36391;SDS011;22639;42.690;23.356;2023-08-20T11:20:37;3.80;;;3.50;;
36391;SDS011;22639;42.690;23.356;2023-08-20T11:23:03;5.50;;;3.60;;
36391;SDS011;22639;42.690;23.356;2023-08-20T11:25:30;4.03;;;3.63;;
36391;SDS011;22639;42.690;23.356;2023-08-20T11:27:55;4.63;;;4.17;;
36391;SDS011;22639;42.690;23.356;2023-08-20T11:30:20;4.33;;;4.03;;
36391;SDS011;22639;42.690;23.356;2023-08-20T11:32:45;4.35;;;3.63;;
36391;SDS011;22639;42.690;23.356;2023-08-20T11:35:13;4.40;;;4.00;;
36391;SDS011;22639;42.690;23.356;2023-08-20T11:37:39;4.25;;;3.85;;
36391;SDS011;22639;42.690;23.356;2023-08-20T11:40:07;4.43;;;3.92;;
36391;SDS011;22639;42.690;23.356;2023-08-20T11:42:32;4.18;;;3.80;;
36391;SDS011;22639;42.690;23.356;2023-08-20T11:44:58;5.47;;;4.65;;
36391;SDS011;22639;42.690;23.356;2023-08-20T11:47:23;4.55;;;4.15;;
36391;SDS011;22639;42.690;23.356;2023-08-20T11:50:01;4.13;;;3.83;;
36391;SDS011;22639;42.690;23.356;2023-08-20T11:52:26;4.45;;;4.05;;
36391;SDS011;22639;42.690;23.356;2023-08-20T11:54:52;5.10;;;4.60;;
36391;SDS011;22639;42.690;23.356;2023-08-20T11:57:17;4.63;;;4.22;;
36391;SDS011;22639;42.690;23.356;2023-08-20T11:59:43;5.03;;;4.63;;
36391;SDS011;22639;42.690;23.356;2023-08-20T12:02:08;4.60;;;4.20;;
36391;SDS011;22639;42.690;23.356;2023-08-20T12:04:34;5.20;;;4.40;;
36391;SDS011;22639;42.690;23.356;2023-08-20T12:07:02;5.00;;;4.60;;
36391;SDS011;22639;42.690;23.356;2023-08-20T12:09:32;5.97;;;4.88;;
36391;SDS011;22639;42.690;23.356;2023-08-20T12:11:57;5.03;;;4.57;;
36391;SDS011;22639;42.690;23.356;2023-08-20T12:14:24;4.50;;;4.10;;
36391;SDS011;22639;42.690;23.356;2023-08-20T12:16:50;4.18;;;3.88;;
36391;SDS011;22639;42.690;23.356;2023-08-20T12:19:16;3.90;;;3.50;;
36391;SDS011;22639;42.690;23.356;2023-08-20T12:21:41;5.47;;;4.85;;
36391;SDS011;22639;42.690;23.356;2023-08-20T12:24:08;5.30;;;4.72;;
36391;SDS011;22639;42.690;23.356;2023-08-20T12:26:33;4.38;;;3.97;;
36391;SDS011;22639;42.690;23.356;2023-08-20T12:28:59;4.85;;;4.53;;
36391;SDS011;22639;42.690;23.356;2023-08-20T12:31:24;6.28;;;4.78;;
36391;SDS011;22639;42.690;23.356;2023-08-20T12:33:49;6.82;;;4.20;;
36391;SDS011;22639;42.690;23.356;2023-08-20T12:36:14;4.90;;;4.20;;
36391;SDS011;22639;42.690;23.356;2023-08-20T12:38:40;4.65;;;4.25;;
36391;SDS011;22639;42.690;23.356;2023-08-20T12:41:07;4.05;;;3.75;;
36391;SDS011;22639;42.690;23.356;2023-08-20T12:43:32;5.15;;;4.72;;
36391;SDS011;22639;42.690;23.356;2023-08-20T12:45:57;4.63;;;4.22;;
36391;SDS011;22639;42.690;23.356;2023-08-20T12:48:23;4.38;;;3.97;;
36391;SDS011;22639;42.690;23.356;2023-08-20T12:50:48;5.05;;;4.55;;
36391;SDS011;22639;42.690;23.356;2023-08-20T12:53:13;4.57;;;4.18;;
36391;SDS011;22639;42.690;23.356;2023-08-20T12:55:38;5.95;;;4.65;;
36391;SDS011;22639;42.690;23.356;2023-08-20T12:58:04;5.18;;;3.90;;
36391;SDS011;22639;42.690;23.356;2023-08-20T13:00:30;4.88;;;4.47;;
36391;SDS011;22639;42.690;23.356;2023-08-20T13:02:55;4.30;;;4.00;;
36391;SDS011;22639;42.690;23.356;2023-08-20T13:05:24;4.75;;;4.35;;
36391;SDS011;22639;42.690;23.356;2023-08-20T13:07:49;4.20;;;3.85;;
36391;SDS011;22639;42.690;23.356;2023-08-20T13:10:17;4.20;;;3.80;;
36391;SDS011;22639;42.690;23.356;2023-08-20T13:12:45;4.28;;;3.95;;
36391;SDS011;22639;42.690;23.356;2023-08-20T13:15:14;5.32;;;4.13;;
36391;SDS011;22639;42.690;23.356;2023-08-20T13:17:39;4.55;;;4.10;;
36391;SDS011;22639;42.690;23.356;2023-08-20T13:20:05;4.95;;;4.53;;
36391;SDS011;22639;42.690;23.356;2023-08-20T13:22:30;6.75;;;4.40;;
36391;SDS011;22639;42.690;23.356;2023-08-20T13:24:57;3.95;;;3.60;;
36391;SDS011;22639;42.690;23.356;2023-08-20T13:27:22;5.93;;;3.97;;
36391;SDS011;22639;42.690;23.356;2023-08-20T13:29:49;5.15;;;4.75;;
36391;SDS011;22639;42.690;23.356;2023-08-20T13:32:14;5.13;;;3.45;;
36391;SDS011;22639;42.690;23.356;2023-08-20T13:34:40;4.72;;;4.15;;
36391;SDS011;22639;42.690;23.356;2023-08-20T13:37:05;4.10;;;3.80;;
36391;SDS011;22639;42.690;23.356;2023-08-20T13:39:30;5.63;;;4.35;;
36391;SDS011;22639;42.690;23.356;2023-08-20T13:41:56;4.38;;;3.97;;
36391;SDS011;22639;42.690;23.356;2023-08-20T13:44:21;5.00;;;4.35;;
36391;SDS011;22639;42.690;23.356;2023-08-20T13:46:47;4.35;;;4.05;;
36391;SDS011;22639;42.690;23.356;2023-08-20T13:49:13;4.53;;;4.13;;
36391;SDS011;22639;42.690;23.356;2023-08-20T13:51:38;4.88;;;4.38;;
36391;SDS011;22639;42.690;23.356;2023-08-20T13:54:03;4.80;;;3.65;;
36391;SDS011;22639;42.690;23.356;2023-08-20T13:56:29;5.43;;;3.85;;
36391;SDS011;22639;42.690;23.356;2023-08-20T13:58:54;8.48;;;3.92;;
36391;SDS011;22639;42.690;23.356;2023-08-20T14:01:19;4.63;;;4.22;;
36391;SDS011;22639;42.690;23.356;2023-08-20T14:03:45;4.90;;;4.40;;
36391;SDS011;22639;42.690;23.356;2023-08-20T14:06:10;4.05;;;3.75;;
36391;SDS011;22639;42.690;23.356;2023-08-20T14:08:35;4.68;;;4.22;;
36391;SDS011;22639;42.690;23.356;2023-08-20T14:11:00;5.28;;;3.58;;
36391;SDS011;22639;42.690;23.356;2023-08-20T14:13:26;4.32;;;4.00;;
36391;SDS011;22639;42.690;23.356;2023-08-20T14:15:51;5.65;;;4.18;;
36391;SDS011;22639;42.690;23.356;2023-08-20T14:18:16;4.45;;;4.05;;
36391;SDS011;22639;42.690;23.356;2023-08-20T14:20:41;4.63;;;4.22;;
36391;SDS011;22639;42.690;23.356;2023-08-20T14:23:07;4.20;;;3.80;;
36391;SDS011;22639;42.690;23.356;2023-08-20T14:25:32;4.18;;;3.78;;
36391;SDS011;22639;42.690;23.356;2023-08-20T14:27:57;3.97;;;3.67;;
36391;SDS011;22639;42.690;23.356;2023-08-20T14:30:22;4.30;;;3.90;;
36391;SDS011;22639;42.690;23.356;2023-08-20T14:32:48;4.53;;;4.15;;
36391;SDS011;22639;42.690;23.356;2023-08-20T14:35:13;4.35;;;4.05;;
36391;SDS011;22639;42.690;23.356;2023-08-20T14:37:39;4.50;;;4.10;;